Weather observations for the past three days for
Ephraim-Gibraltar Airport
Metric (Imperial)
Date Time (cdt) Wind (kph) Vis. (km) Weather Sky Cond. Temperature (ºC) Relative Humidity Wind Chill (°C) Heat Index (°C) Pressure Precipitation (cm)
Air Dwpt 6 hour altimeter (cm) sea level (mb) 1 hr 3 hr 6 hr
Max. Min.
31 05:55 E 7 0.80 Light Drizzle OVC003 19.6 19 96% 75.95 0.0
31 05:35 E 6 1.61 Light Rain OVC001 19.6 19 96% 75.97 0.0
31 05:15 NE 6 2.82 Rain OVC001 19.6 19 96% 75.97 0.0
31 04:55 Calm 4.02 Rain OVC001 19.5 19 97% 75.97 0.0
31 04:35 S 6 0.80 Fog OVC001 19.5 19 97% 75.95 0.0
31 04:15 E 9 1.21 Fog/Mist OVC001 19.5 19 97% 75.95 0.0
31 03:55 E 11 3.22 Fog/Mist OVC001 19.5 19 97% 75.97 0.0
31 03:35 E 7 4.83 Fog/Mist OVC001 19.5 18.9 96% 76.02 0.0
31 03:15 E 7 6.44 Fog/Mist BKN003 OVC110 19.5 18.9 96% 76.02 0.0
31 02:55 E 6 6.44 Fog/Mist SCT003 OVC120 19.5 18.9 96% 76.05 0.0
31 02:35 E 6 6.44 Fog/Mist OVC003 19.5 18.9 96% 76.05 0.0
31 02:15 NE 9 4.83 Fog/Mist OVC003 19.4 18.8 96% 76.05 0.0
31 01:55 E 6 4.02 Fog/Mist OVC003 19.3 18.7 96% 76.02 0.0
31 01:35 Calm 6.44 Fog/Mist OVC003 19.3 18.7 96% 76.02 0.0
31 01:15 E 7 8.05 Fog/Mist OVC003 19.5 18.8 96% 76.02 0.0
31 00:55 Calm 8.05 Fog/Mist OVC003 19.5 18.9 20.3 19.5 96% 76.05 0.0
31 00:35 Calm 11.27 Overcast BKN003 OVC039 19.6 19 96% 76.07 0.0
31 00:15 Calm 11.27 Overcast SCT003 OVC037 19.6 19.1 97% 76.07 0.0
30 23:55 E 6 16.09 Overcast OVC039 19.6 19.1 97% 76.07 0.0
30 23:35 E 6 16.09 Overcast OVC039 19.6 19.1 97% 76.05 0.0
30 23:15 E 9 16.09 Overcast OVC041 19.7 19.1 96% 76.05 0.0
30 22:55 E 9 16.09 Overcast OVC041 19.7 19.2 97% 76.02 0.0
30 22:35 E 11 16.09 Overcast OVC039 19.9 19.3 96% 76.05 0.0
30 22:15 E 9 16.09 Overcast OVC039 20 19.3 96% 76.05 0.0
30 21:55 E 7 11.27 Overcast SCT003 OVC041 19.8 19.3 97% 76.05 0.0
30 21:35 E 7 8.05 Fog/Mist OVC003 19.8 19.2 96% 76.05 0.0
30 21:15 E 7 4.83 Fog/Mist OVC003 20 19.3 96% 76.07 0.0
30 20:55 E 7 4.02 Fog/Mist OVC003 19.9 19.3 96% 76.05 0.0
30 20:35 SE 7 4.83 Fog/Mist OVC003 19.8 19.2 96% 76.05 0.0
30 20:15 SE 6 6.44 Fog/Mist OVC003 19.8 19.2 96% 76.05 0.0
30 19:55 SE 11 8.05 Fog/Mist OVC003 19.9 19.3 96% 76.02 0.0
30 19:35 SE 9 11.27 Overcast OVC003 20 19.5 97% 76.02 0.0
30 19:15 E 11 11.27 Overcast OVC005 20.1 19.5 96% 76 0.0
30 18:55 SE 9 16.09 Overcast OVC005 20.4 19.8 23.3 20.4 96% 76 0.0
30 18:35 E 9 16.09 Overcast BKN005 OVC049 20.8 20.2 96% 75.97 0.0
30 18:15 E 9 16.09 Mostly Cloudy SCT007 BKN049 BKN065 21.4 20.3 93% 75.97 0.0
30 17:55 E 13 16.09 Mostly Cloudy SCT007 BKN049 BKN065 21.7 20 90% 75.97 0.0
30 17:35 E 9 16.09 Overcast OVC049 21.8 20.1 90% 76 0.0
30 17:15 E 7 16.09 Overcast OVC049 22 19.8 87% 75.97 0.0
30 16:55 E 7 16.09 Overcast OVC045 21.8 19.5 87% 75.97 0.0
30 16:35 E 7 16.09 Overcast OVC045 21.7 19.7 88% 75.97 0.0
30 16:15 E 9 16.09 Overcast SCT034 OVC045 21.7 19.1 85% 75.97 0.0
30 15:55 E 7 16.09 Overcast SCT012 OVC036 21.6 19.2 86% 76 0.0
30 15:35 SE 9 16.09 Overcast SCT013 BKN036 OVC044 22 18.7 82% 76 0.0
30 15:15 SE 9 16.09 Overcast BKN015 OVC044 22.2 19.1 83% 76 0.0
30 14:55 E 7 16.09 Overcast BKN018 BKN025 OVC041 22.8 18.3 76% 76 0.0
30 14:35 N 7 16.09 Mostly Cloudy SCT023 BKN041 22.7 19.6 83% 75.97 0.0
30 14:15 N 11 16.09 Mostly Cloudy BKN023 BKN041 23 19.9 83% 75.97 0.0
30 13:55 N 13 16.09 Mostly Cloudy BKN023 21.9 19.1 84% 75.95 0.0
30 13:35 N 17 16.09 Mostly Cloudy SCT025 BKN050 22.6 18.9 80% 75.97 0.0
30 13:15 N 17 16.09 Mostly Cloudy SCT021 BKN045 BKN050 22.8 19 79% 75.97 0.0
30 12:55 N 15 16.09 Overcast BKN021 BKN025 OVC045 21.6 19.3 23 19 87% 75.97 0.0
30 12:35 N 15 16.09 Overcast BKN016 OVC023 21.7 19 85% 75.97 0.0
30 12:15 NW 7 16.09 Overcast OVC016 22.2 19.6 85% 76 0.0
30 11:55 Calm 16.09 Overcast BKN016 OVC022 22.6 19.2 81% 76 0.0
30 11:35 Calm 16.09 Overcast OVC016 22.4 18.6 79% 76 0.0
30 11:15 Calm 16.09 Overcast SCT014 SCT019 OVC046 22.6 18.1 76% 76 0.0
30 10:55 S 6 16.09 Mostly Cloudy SCT035 BKN046 22.2 19.5 85% 76 0.0
30 10:35 Calm 16.09 Overcast SCT021 BKN035 OVC046 21 19.3 90% 76 0.0
30 10:15 Calm 16.09 Overcast OVC021 20.5 19.5 94% 76 0.0
30 09:55 Calm 16.09 Overcast OVC021 20.1 19.5 96% 76 0.0
30 09:35 S 6 16.09 Overcast OVC021 19.7 19.1 96% 76.02 0.0
30 09:15 S 6 11.27 Light Drizzle OVC021 19.5 19 97% 76.02 0.0
30 08:55 Calm 11.27 Overcast BKN021 OVC027 19.4 18.8 96% 76 0.0
30 08:35 Calm 11.27 Overcast BKN026 OVC033 19.3 18.7 96% 76 0.0
30 08:15 Calm 11.27 Light Rain OVC026 19 18.5 97% 76.02 0.0
30 07:55 S 6 16.09 Overcast OVC028 19 18.5 97% 76.02 0.0
30 07:35 Calm 11.27 Overcast BKN028 OVC041 19 18.5 97% 76.02 0.0
30 07:15 Calm 8.05 Fog/Mist SCT028 OVC041 19 18.5 97% 76 0.0
30 06:55 Calm 11.27 Overcast SCT028 BKN041 OVC048 19 18.5 19.6 18.7 97% 75.97 0.0
30 06:35 S 6 11.27 Overcast SCT041 OVC048 19 18.5 97% 75.97 0.0
30 06:15 S 6 4.83 Light Rain OVC048 19 18.5 97% 75.95 0.0
30 05:55 Calm 11.27 Light Rain BKN050 BKN060 OVC070 19.1 18.5 96% 75.95 0.0
30 05:30 Calm 16.09 Overcast OVC055 19.2 18.7 97% 75.97 0.0
30 05:15 Calm 11.27 Light Rain OVC065 19.3 18.8 97% 75.97 0.0
30 04:55 Calm 16.09 Partly Cloudy SCT065 SCT075 19.5 18.8 96% 75.97 0.0
30 04:35 S 7 16.09 Mostly Cloudy BKN065 19.5 19 97% 75.97 0.0
30 04:15 S 6 16.09 Overcast OVC075 19.5 19 97% 75.97 0.0
30 03:55 S 9 16.09 Overcast BKN035 OVC075 19.5 19 97% 76 0.0
30 03:35 S 7 16.09 Overcast OVC035 19.5 19 97% 76 0.0
30 03:15 S 7 16.09 Overcast OVC035 19.2 18.7 97% 76 0.0
30 02:55 S 7 16.09 Overcast OVC037 19.1 18.5 96% 76 0.0
30 02:35 S 7 16.09 Overcast OVC037 19 18.5 97% 76.02 0.0
30 02:15 S 7 16.09 Overcast OVC039 19 18.5 97% 76.05 0.0
30 01:55 S 7 16.09 Overcast SCT032 OVC039 18.8 18.3 97% 76.05 0.0
30 01:35 SE 9 16.09 Overcast OVC030 19 18.3 96% 76.07 0.0
30 01:15 S 7 16.09 Overcast OVC030 18.8 18.3 97% 76.1 0.0
30 00:55 SE 11 16.09 Overcast OVC032 18.7 18.1 18.7 17 96% 76.1 0.0
30 00:35 SE 15 16.09 Overcast BKN036 OVC043 18.5 18 97% 76.12 0.0
30 00:15 SE 13 16.09 Overcast SCT004 BKN038 OVC070 18.2 17.7 97% 76.12 0.0
29 23:55 SE 15 16.09 Overcast SCT004 SCT042 OVC070 18 17.5 97% 76.12 0.0
29 23:35 SE 13 16.09 Overcast BKN004 OVC070 17.6 17.1 97% 76.12 0.0
29 23:15 SE 15 16.09 Overcast OVC004 17.7 17.2 97% 76.15 0.0
29 22:55 SE 19 G 30 11.27 Overcast OVC004 17.7 17.2 97% 76.15 0.0
29 22:35 SE 15 11.27 Overcast OVC002 17.6 17.1 97% 76.17 0.0
29 22:15 SE 13 11.27 Overcast OVC002 17.6 17.1 97% 76.2 0.0
29 21:55 SE 13 11.27 Overcast OVC002 17.5 17 97% 76.2 0.0
29 21:35 SE 11 8.05 Fog/Mist OVC002 17.2 16.6 96% 76.2 0.0
29 21:15 E 9 6.44 Fog/Mist OVC002 17.1 16.5 96% 76.23 0.0
29 20:55 E 9 8.05 Fog/Mist OVC002 17 16.5 97% 76.23 0.0
29 20:35 E 6 8.05 Fog/Mist OVC002 17 16.5 97% 76.23 0.0
29 20:15 SE 7 11.27 Overcast BKN004 BKN027 OVC055 17 16.5 97% 76.23 0.0
29 19:55 Calm 2.82 Heavy Rain BKN004 OVC016 17.2 16.6 96% 76.25 0.0
29 19:35 S 6 6.44 Rain SCT002 BKN030 OVC065 17.2 16.7 97% 76.23 0.0
29 19:15 Calm 6.44 Heavy Rain SCT006 BKN050 OVC065 17.3 16.8 97% 76.23 0.0
29 18:55 S 6 4.02 Rain SCT004 BKN008 OVC050 17.5 17 20.7 17.5 97% 76.23 0.0
29 18:35 S 6 4.02 Rain BKN004 OVC013 17.8 17.2 96% 76.25 0.0
29 18:15 S 6 4.02 Rain BKN004 BKN019 OVC055 17.7 17.2 97% 76.25 0.0
29 17:55 Calm 8.05 Light Rain BKN060 OVC070 17.6 17.1 97% 76.25 0.0
29 17:35 Calm 8.05 Light Rain BKN070 OVC080 17.6 17.1 97% 76.25 0.0
29 17:15 SW 6 8.05 Rain SCT065 OVC075 17.7 17.2 97% 76.25 0.0
29 16:55 SW 6 11.27 Rain SCT023 SCT050 OVC085 18.1 17.5 96% 76.23 0.0
29 16:35 SW 7 11.27 Light Rain SCT017 SCT050 OVC085 18.5 18 97% 76.23 0.0
29 16:15 S 6 16.09 Light Rain SCT075 OVC085 18.5 18 97% 76.25 0.0
29 15:55 S 7 16.09 Rain SCT043 BKN085 OVC120 18.6 18 96% 76.25 0.0
29 15:35 SW 7 16.09 Light Rain SCT044 BKN070 OVC075 18.5 18 97% 76.28 0.0
29 15:15 SW 6 11.27 Light Rain SCT044 BKN060 OVC075 18.2 17.7 97% 76.3 0.0
29 14:55 Calm 16.09 Light Rain SCT041 BKN050 OVC065 18.1 17.6 97% 76.33 0.0
29 14:35 SW 6 16.09 Light Rain SCT065 OVC075 18 17.4 96% 76.33 0.0
29 14:15 SW 6 16.09 Light Rain SCT050 BKN065 OVC090 18.1 17.6 97% 76.35 0.0
29 13:55 W 9 16.09 Light Rain SCT047 BKN060 OVC090 18.8 16.6 87% 76.35 0.0
29 13:35 SW 13 16.09 Light Drizzle SCT045 BKN065 BKN080 19.9 17 83% 76.35 0.0
29 13:15 SW 17 G 26 16.09 Overcast OVC075 20.5 16.3 77% 76.35 0.0
29 12:55 SW 9 16.09 Mostly Cloudy SCT075 BKN090 20.7 15.9 21.3 18.5 74% 76.33 0.0
29 12:35 SW 9 16.09 Partly Cloudy SCT100 SCT120 21 15.6 71% 76.33 0.0
29 12:10 SW 11 16.09 Partly Cloudy SCT120 21 15.5 71% 76.35 0.0
29 11:55 SW 7 16.09 Partly Cloudy SCT060 SCT070 SCT090 21 15.6 71% 76.38 0.0
29 11:35 SW 9 16.09 Mostly Cloudy SCT060 SCT070 BKN110 21 15.5 71% 76.38 0.0
29 11:15 W 9 16.09 Fair CLR 21.2 15.5 70% 76.38 0.0
29 10:55 W 9 16.09 Partly Cloudy SCT055 21.1 15.3 70% 76.38 0.0
29 10:35 SW 9 16.09 Fair CLR 21.1 14.9 68% 76.38 0.0
29 10:15 W 13 16.09 Fair CLR 21.1 15.8 72% 76.38 0.0
29 09:55 W 6 16.09 Partly Cloudy SCT050 21 15.8 72% 76.38 0.0
29 09:35 W 7 16.09 Partly Cloudy SCT050 21 15.5 71% 76.38 0.0
29 09:15 SW 9 16.09 Fair CLR 20.6 16.6 78% 76.38 0.0
29 08:55 W 9 16.09 Fair CLR 20.6 17.2 81% 76.4 0.0
29 08:35 W 11 16.09 Fair CLR 20.6 17.1 80% 76.4 0.0
29 08:15 W 7 16.09 Fair CLR 19.9 18 89% 76.4 0.0
29 07:55 W 6 16.09 Fair CLR 19.2 17.7 91% 76.4 0.0
29 07:35 W 7 16.09 Fair CLR 19.1 17.3 89% 76.4 0.0
29 07:15 W 6 16.09 Fair CLR 18.8 17.2 90% 76.4 0.0
29 06:55 W 6 16.09 Fair CLR 18.4 17.5 19 17 95% 76.35 0.0
29 06:35 Calm 16.09 Fair CLR 17.9 16.9 94% 76.33 0.0
29 06:15 SW 6 16.09 Fair CLR 18.6 16 85% 76.33 0.0
29 05:55 W 7 16.09 Fair CLR 18.9 15.7 82% 76.35 0.0
29 05:35 W 7 16.09 Fair CLR 19 16.2 84% 76.33 0.0
29 05:15 W 7 16.09 Fair CLR 18.7 16.6 88% 76.35 0.0
29 04:55 W 6 16.09 Fair CLR 18.6 16.8 89% 76.33 0.0
29 04:35 SW 6 16.09 Fair CLR 18.5 16.6 89% 76.33 0.0
29 04:15 W 6 16.09 Fair CLR 18 16.3 90% 76.33 0.0
29 03:55 Calm 16.09 Fair CLR 18.1 16.1 88% 76.33 0.0
29 03:35 Calm 16.09 Fair CLR 18 15.9 88% 76.33 0.0
29 03:15 Calm 16.09 Fair CLR 17.9 15.6 87% 76.33 0.0
29 02:55 W 6 16.09 Fair CLR 17.4 15.5 89% 76.33 0.0
29 02:35 Calm 16.09 Fair CLR 17.7 15.5 87% 76.33 0.0
29 02:15 Calm 16.09 Fair CLR 17.7 15.9 89% 76.33 0.0
29 01:55 Calm 16.09 Fair CLR 17.7 16 90% 76.33 0.0
29 01:35 Calm 16.09 Fair CLR 17.4 16 92% 76.33 0.0
29 01:15 SW 6 16.09 Fair CLR 17.3 16.6 96% 76.33 0.0
29 00:55 Calm 16.09 Fair CLR 17.5 17 19.8 17.5 97% 76.33 0.0
29 00:35 S 6 16.09 Fair CLR 17.9 17.3 96% 76.33 0.0
29 00:15 S 7 16.09 Fair CLR 18.1 17.5 96% 76.33 0.0
28 23:55 S 7 16.09 Fair CLR 18.2 17.7 97% 76.35 0.0
28 23:35 S 7 16.09 Fair CLR 18.3 17.8 97% 76.33 0.0
28 23:15 S 9 16.09 Fair CLR 18.5 18 97% 76.33 0.0
28 22:55 S 7 16.09 Fair CLR 18.5 18 97% 76.33 0.0
28 22:35 S 7 16.09 Fair CLR 18.5 18 97% 76.33 0.0
28 22:15 S 9 11.27 Fair CLR 18.5 18 97% 76.35 0.0
28 21:55 S 7 11.27 Fair CLR 18.5 18 97% 76.35 0.0
28 21:35 S 9 16.09 Fair CLR 18.5 18 97% 76.38 0.0
28 21:15 S 7 16.09 Fair CLR 18.5 18 97% 76.35 0.0
28 20:55 S 11 16.09 Fair CLR 18.5 18 97% 76.35 0.0
28 20:35 S 7 16.09 Fair CLR 18.5 18 97% 76.38 0.0
28 20:15 S 9 16.09 Fair CLR 18.7 18.1 96% 76.38 0.0
28 19:55 S 7 16.09 Fair CLR 18.7 18.2 97% 76.35 0.0
28 19:35 S 11 16.09 Fair CLR 19 18.3 96% 76.35 0.0
28 19:15 S 9 16.09 Fair CLR 19.3 18.4 95% 76.38 0.0
28 18:55 S 11 16.09 Fair CLR 19.9 17.6 23.3 19.9 87% 76.38 0.0
28 18:15 S 13 16.09 Fair CLR 20.8 16.3 76% 76.38 0.0
28 17:55 SE 9 16.09 Fair CLR 21.5 14.7 65% 76.4 0.0
28 17:35 SE 13 16.09 Fair CLR 21.6 15.6 69% 76.4 0.0
28 17:15 S 11 16.09 Fair CLR 22 16 69% 76.4 0.0
28 16:55 S 11 16.09 Fair CLR 22 15.6 67% 76.4 0.0
28 16:35 S 15 16.09 Partly Cloudy SCT090 22.7 14.9 62% 76.4 0.0
28 16:15 SE 17 16.09 Mostly Cloudy BKN090 23.1 12.9 53% 76.4 0.0
28 15:55 S 13 16.09 Partly Cloudy SCT090 23.1 13.4 55% 76.43 0.0
28 15:35 S 13 16.09 Fair CLR 22.8 14.2 58% 76.43 0.0
28 15:15 S 11 16.09 Fair CLR 22.5 14.2 60% 76.43 0.0
28 14:55 S 11 16.09 Fair CLR 21.8 14.5 63% 76.45 0.0
28 14:35 SE 11 16.09 Partly Cloudy SCT033 SCT060 22.8 14 58% 76.45 0.0
28 14:10 S 9 16.09 Partly Cloudy SCT033 22.8 13.9 57% 76.48 0.0
28 13:55 S 7 16.09 Partly Cloudy SCT033 22.3 13.7 58% 76.48 0.0
28 13:30 SE 6 16.09 Fair CLR 22 13.9 60% 76.5 0.0
28 13:15 SE 6 16.09 Partly Cloudy SCT036 SCT044 21 13.6 63% 76.53 0.0
28 12:55 S 11 16.09 Partly Cloudy SCT037 SCT050 SCT065 21.4 13.4 23.1 15.5 60% 76.53 0.0
28 12:35 S 9 16.09 Partly Cloudy SCT035 SCT042 SCT050 21.7 12.9 57% 76.53 0.0
28 12:10 SE 15 16.09 Overcast SCT038 BKN046 OVC060 21.7 12.4 56% 76.53 0.0
28 11:55 SE 13 16.09 Mostly Cloudy BKN045 BKN060 23.1 12.5 51% 76.53 0.0
28 11:35 S 11 16.09 Fair CLR 22.2 12.1 53% 76.56 0.0
28 11:15 S 13 16.09 Fair CLR 22 12.4 55% 76.58 0.0
28 10:55 S 11 16.09 Fair CLR 21.5 12.1 55% 76.58 0.0
28 10:35 S 13 16.09 Fair CLR 21.2 11.4 54% 76.58 0.0
28 10:15 S 15 16.09 Fair CLR 21.1 10.2 50% 76.58 0.0
28 09:55 S 15 16.09 Fair CLR 21 8 43% 76.58 0.0
28 09:35 S 15 16.09 Fair CLR 20.6 8.5 46% 76.58 0.0
28 09:15 S 17 16.09 Fair CLR 20.2 9 49% 76.58 0.0
28 08:55 S 13 16.09 Fair CLR 20 12.2 61% 76.58 0.0
28 08:35 SE 11 16.09 Fair CLR 19.7 12.2 62% 76.58 0.0
28 08:15 SE 6 16.09 Fair CLR 19 12.6 67% 76.58 0.0
28 07:55 SE 7 16.09 Fair CLR 17.9 12.5 71% 76.58 0.0
28 07:35 SE 7 16.09 Fair CLR 17.5 12.6 73% 76.58 0.0
28 07:15 SE 6 16.09 Fair CLR 16.2 12.6 79% 76.56 0.0
28 06:35 Calm 16.09 Partly Cloudy SCT085 15 12.3 84% 76.53 0.0
Date Time (cdt) Wind (kph) Vis. (km) Weather Sky Cond. Air Dwpt Max. Min. Relative Humidity Wind Chill (°C) Heat Index (°C) altimeter (cm) sea level (mb) 1 hr 3 hr 6 hr
6 hour
Temperature (ºC) Pressure Precipitation (cm)